createdAt,value
2023-04-09T00:01:08.002Z,2.75
2023-04-09T00:03:36.323Z,3.25
2023-04-09T00:06:04.796Z,3.03
2023-04-09T00:08:32.233Z,2.65
2023-04-09T00:11:00.022Z,3.03
2023-04-09T00:13:38.445Z,2.87
2023-04-09T00:16:08.115Z,3.00
2023-04-09T00:18:35.687Z,2.80
2023-04-09T00:21:03.170Z,2.67
2023-04-09T00:23:31.064Z,2.83
2023-04-09T00:25:58.503Z,2.85
2023-04-09T00:28:26.066Z,3.12
2023-04-09T00:30:53.748Z,2.58
2023-04-09T00:33:21.287Z,2.58
2023-04-09T00:35:48.704Z,2.80
2023-04-09T00:38:16.408Z,2.80
2023-04-09T00:40:44.040Z,3.10
2023-04-09T00:43:12.116Z,2.78
2023-04-09T00:45:39.854Z,2.67
2023-04-09T00:48:07.447Z,2.83
2023-04-09T00:50:34.927Z,2.67
2023-04-09T00:53:02.688Z,2.53
2023-04-09T00:55:30.220Z,2.80
2023-04-09T00:57:57.666Z,2.70
2023-04-09T01:00:25.573Z,2.40
2023-04-09T01:02:54.884Z,2.60
2023-04-09T01:05:22.390Z,2.78
2023-04-09T01:08:01.344Z,3.10
2023-04-09T01:10:32.761Z,2.50
2023-04-09T01:13:16.321Z,2.58
2023-04-09T01:15:56.519Z,2.58
2023-04-09T01:18:33.098Z,2.62
2023-04-09T01:21:36.461Z,2.60
2023-04-09T01:24:47.417Z,2.55
2023-04-09T01:27:16.317Z,2.42
2023-04-09T01:29:48.008Z,2.30
2023-04-09T01:32:17.143Z,2.65
2023-04-09T01:34:46.085Z,2.62
2023-04-09T01:37:13.549Z,2.58
2023-04-09T01:39:41.116Z,2.50
2023-04-09T01:42:11.239Z,2.50
2023-04-09T01:44:39.413Z,2.53
2023-04-09T01:47:08.509Z,2.72
2023-04-09T01:49:36.401Z,2.83
2023-04-09T01:52:03.997Z,2.45
2023-04-09T01:54:31.497Z,2.53
2023-04-09T01:56:59.366Z,2.67
2023-04-09T01:59:26.894Z,2.60
2023-04-09T02:01:57.536Z,2.62
2023-04-09T02:04:40.410Z,2.53
2023-04-09T02:07:14.718Z,2.42
2023-04-09T02:09:42.702Z,2.55
2023-04-09T02:12:12.471Z,2.65
2023-04-09T02:14:40.150Z,2.30
2023-04-09T02:17:07.965Z,2.65
2023-04-09T02:19:45.962Z,2.20
2023-04-09T02:22:14.356Z,2.70
2023-04-09T02:24:41.820Z,2.15
2023-04-09T02:27:09.338Z,2.70
2023-04-09T02:29:39.673Z,2.60
2023-04-09T02:32:07.296Z,2.30
2023-04-09T02:34:34.817Z,2.78
2023-04-09T02:37:02.794Z,2.37
2023-04-09T02:39:30.343Z,2.10
2023-04-09T02:41:58.034Z,2.70
2023-04-09T02:44:26.947Z,2.42
2023-04-09T02:46:54.715Z,2.10
2023-04-09T02:49:22.179Z,2.42
2023-04-09T02:51:49.899Z,2.20
2023-04-09T02:54:17.395Z,2.10
2023-04-09T02:56:44.866Z,2.00
2023-04-09T02:59:12.975Z,2.20
2023-04-09T03:01:40.498Z,2.50
2023-04-09T03:04:08.301Z,2.20
2023-04-09T03:06:36.246Z,2.33
2023-04-09T03:09:03.807Z,2.47
2023-04-09T03:11:31.712Z,2.70
2023-04-09T03:13:59.472Z,2.22
2023-04-09T03:16:27.046Z,2.40
2023-04-09T03:18:54.680Z,2.15
2023-04-09T03:21:22.472Z,2.37
2023-04-09T03:23:50.408Z,2.20
2023-04-09T03:26:18.081Z,2.15
2023-04-09T03:28:46.157Z,2.20
2023-04-09T03:31:14.168Z,2.12
2023-04-09T03:33:42.217Z,2.17
2023-04-09T03:36:10.128Z,1.83
2023-04-09T03:38:39.124Z,1.77
2023-04-09T03:41:07.437Z,2.22
2023-04-09T03:43:35.247Z,2.00
2023-04-09T03:46:17.137Z,2.15
2023-04-09T03:48:45.941Z,2.20
2023-04-09T03:51:16.870Z,2.10
2023-04-09T03:53:47.563Z,2.20
2023-04-09T03:56:14.991Z,1.87
2023-04-09T03:58:42.553Z,2.20
2023-04-09T04:01:11.067Z,2.28
2023-04-09T04:03:39.702Z,2.20
2023-04-09T04:06:07.544Z,2.30
2023-04-09T04:08:37.031Z,2.40
2023-04-09T04:11:05.204Z,2.00
2023-04-09T04:13:33.347Z,1.65
2023-04-09T04:16:01.881Z,1.98
2023-04-09T04:18:29.692Z,2.50
2023-04-09T04:20:57.715Z,2.30
2023-04-09T04:23:25.163Z,2.10
2023-04-09T04:25:53.214Z,2.10
2023-04-09T04:28:22.840Z,2.12
2023-04-09T04:30:51.334Z,2.20
2023-04-09T04:33:19.151Z,2.45
2023-04-09T04:35:47.757Z,2.15
2023-04-09T04:38:15.933Z,2.15
2023-04-09T04:40:43.790Z,2.05
2023-04-09T04:43:11.332Z,2.00
2023-04-09T04:45:38.868Z,2.10
2023-04-09T04:48:06.717Z,1.85
2023-04-09T04:50:34.121Z,2.08
2023-04-09T04:53:01.956Z,1.83
2023-04-09T04:55:30.452Z,2.10
2023-04-09T04:58:00.179Z,2.42
2023-04-09T05:00:28.523Z,1.90
2023-04-09T05:02:59.347Z,2.05
2023-04-09T05:05:27.187Z,2.00
2023-04-09T05:07:54.793Z,1.80
2023-04-09T05:10:22.649Z,2.08
2023-04-09T05:12:50.251Z,2.28
2023-04-09T05:15:19.087Z,2.12
2023-04-09T05:17:46.841Z,2.17
2023-04-09T05:20:14.510Z,1.87
2023-04-09T05:22:44.986Z,2.10
2023-04-09T05:25:16.414Z,2.10
2023-04-09T05:27:44.218Z,1.90
2023-04-09T05:30:11.791Z,1.95
2023-04-09T05:32:39.701Z,2.05
2023-04-09T05:35:07.968Z,1.95
2023-04-09T05:37:38.768Z,1.92
2023-04-09T05:40:07.444Z,1.73
2023-04-09T05:42:35.139Z,2.00
2023-04-09T05:45:03.038Z,1.90
2023-04-09T05:47:32.268Z,2.15
2023-04-09T05:50:00.274Z,2.00
2023-04-09T05:52:28.551Z,1.92
2023-04-09T05:54:56.461Z,2.00
2023-04-09T05:57:24.275Z,1.98
2023-04-09T05:59:52.159Z,1.83
2023-04-09T06:02:20.080Z,2.03
2023-04-09T06:04:48.037Z,1.87
2023-04-09T06:07:15.713Z,2.00
2023-04-09T06:09:46.968Z,2.12
2023-04-09T06:12:15.096Z,1.60
2023-04-09T06:14:42.620Z,1.80
2023-04-09T06:17:10.102Z,1.70
2023-04-09T06:19:37.965Z,1.70
2023-04-09T06:22:05.965Z,2.15
2023-04-09T06:24:33.417Z,1.87
2023-04-09T06:27:01.191Z,1.95
2023-04-09T06:29:28.686Z,2.00
2023-04-09T06:31:56.913Z,1.95
2023-04-09T06:34:24.637Z,1.73
2023-04-09T06:36:52.075Z,1.90
2023-04-09T06:39:19.572Z,1.98
2023-04-09T06:41:47.573Z,2.20
2023-04-09T06:44:20.098Z,2.05
2023-04-09T06:46:47.845Z,2.67
2023-04-09T06:49:15.437Z,2.30
2023-04-09T06:51:42.889Z,2.47
2023-04-09T06:54:11.020Z,2.62
2023-04-09T06:56:38.489Z,2.47
2023-04-09T06:59:06.239Z,2.83
2023-04-09T07:01:35.705Z,2.78
2023-04-09T07:06:31.717Z,3.10
2023-04-09T07:08:59.444Z,2.80
2023-04-09T07:11:26.940Z,3.00
2023-04-09T07:13:56.791Z,2.67
2023-04-09T07:16:24.732Z,3.10
2023-04-09T07:18:52.222Z,2.60
2023-04-09T07:21:20.404Z,3.20
2023-04-09T07:23:48.216Z,3.28
2023-04-09T07:26:15.676Z,3.12
2023-04-09T07:28:43.129Z,3.80
2023-04-09T07:31:11.465Z,7.20
2023-04-09T07:33:39.038Z,5.32
2023-04-09T07:36:06.961Z,4.70
2023-04-09T07:38:35.022Z,4.43
2023-04-09T07:41:02.599Z,4.50
2023-04-09T07:43:30.790Z,4.32
2023-04-09T07:45:58.687Z,4.25
2023-04-09T07:48:28.130Z,4.32
2023-04-09T07:50:55.688Z,4.07
2023-04-09T07:53:23.489Z,3.83
2023-04-09T07:55:51.807Z,3.58
2023-04-09T07:58:19.250Z,3.35
2023-04-09T08:00:47.958Z,3.50
2023-04-09T08:03:15.923Z,4.12
2023-04-09T08:05:43.573Z,3.85
2023-04-09T08:08:12.535Z,3.60
2023-04-09T08:10:40.423Z,4.30
2023-04-09T08:13:09.101Z,4.47
2023-04-09T08:15:37.960Z,4.32
2023-04-09T08:18:05.758Z,3.85
2023-04-09T08:20:33.377Z,4.47
2023-04-09T08:23:00.828Z,4.22
2023-04-09T08:25:28.643Z,4.00
2023-04-09T08:27:56.056Z,3.47
2023-04-09T08:30:23.510Z,4.00
2023-04-09T08:32:51.355Z,3.85
2023-04-09T08:35:18.880Z,4.32
2023-04-09T08:37:46.852Z,4.07
2023-04-09T08:40:15.993Z,3.67
2023-04-09T08:42:45.227Z,3.35
2023-04-09T08:45:13.107Z,3.75
2023-04-09T08:47:41.738Z,3.92
2023-04-09T08:50:09.486Z,2.97
2023-04-09T08:52:36.939Z,3.80
2023-04-09T08:55:05.183Z,3.35
2023-04-09T08:57:40.077Z,3.00
2023-04-09T09:00:08.641Z,3.55
2023-04-09T09:02:36.362Z,3.10
2023-04-09T09:05:03.897Z,3.20
2023-04-09T09:07:32.278Z,2.83
2023-04-09T09:10:05.608Z,2.92
2023-04-09T09:12:38.593Z,2.55
2023-04-09T09:15:30.956Z,3.30
2023-04-09T09:17:59.781Z,3.03
2023-04-09T09:20:27.770Z,2.78
2023-04-09T09:22:55.959Z,3.53
2023-04-09T09:25:24.920Z,2.95
2023-04-09T09:27:52.964Z,3.15
2023-04-09T09:30:25.720Z,3.03
2023-04-09T09:32:54.824Z,2.87
2023-04-09T09:35:23.432Z,2.65
2023-04-09T09:38:06.916Z,3.20
2023-04-09T09:40:34.612Z,3.00
2023-04-09T09:43:02.077Z,2.85
2023-04-09T09:45:29.493Z,3.00
2023-04-09T09:47:57.289Z,2.58
2023-04-09T09:50:28.926Z,3.30
2023-04-09T09:53:03.215Z,2.87
2023-04-09T09:55:36.111Z,3.10
2023-04-09T09:58:12.771Z,3.12
2023-04-09T10:00:40.367Z,2.83
2023-04-09T10:03:13.925Z,2.83
2023-04-09T10:05:41.608Z,3.08
2023-04-09T10:08:09.390Z,2.62
2023-04-09T10:10:36.972Z,2.90
2023-04-09T10:13:06.127Z,2.78
2023-04-09T10:15:33.856Z,2.60
2023-04-09T10:18:01.953Z,3.10
2023-04-09T10:20:36.589Z,2.85
2023-04-09T10:23:06.448Z,2.83
2023-04-09T10:25:34.198Z,3.03
2023-04-09T10:28:02.348Z,2.70
2023-04-09T10:30:36.766Z,3.05
2023-04-09T10:33:14.319Z,3.00
2023-04-09T10:35:42.446Z,2.95
2023-04-09T10:38:10.753Z,2.70
2023-04-09T10:40:47.747Z,2.60
2023-04-09T10:43:16.122Z,2.62
2023-04-09T10:45:43.619Z,3.10
2023-04-09T10:48:12.982Z,2.47
2023-04-09T10:50:45.663Z,2.90
2023-04-09T10:53:26.000Z,2.62
2023-04-09T10:55:53.984Z,3.03
2023-04-09T10:58:21.572Z,2.72
2023-04-09T11:00:50.154Z,2.60
2023-04-09T11:03:24.937Z,2.58
2023-04-09T11:05:52.629Z,2.20
2023-04-09T11:08:22.165Z,2.42
2023-04-09T11:10:51.905Z,2.70
2023-04-09T11:13:21.295Z,2.40
2023-04-09T11:15:48.750Z,2.53
2023-04-09T11:18:20.506Z,2.40
2023-04-09T11:20:48.446Z,2.65
2023-04-09T11:23:16.150Z,2.60
2023-04-09T11:25:47.915Z,2.72
2023-04-09T11:28:15.660Z,2.45
2023-04-09T11:30:43.863Z,2.83
2023-04-09T11:33:11.337Z,2.50
2023-04-09T11:35:39.077Z,2.30
2023-04-09T11:38:09.727Z,2.35
2023-04-09T11:40:37.668Z,2.80
2023-04-09T11:43:08.210Z,2.60
2023-04-09T11:45:35.619Z,2.65
2023-04-09T11:48:03.046Z,2.50
2023-04-09T11:50:31.052Z,2.50
2023-04-09T11:52:58.490Z,2.42
2023-04-09T11:55:26.909Z,2.62
2023-04-09T11:57:57.623Z,2.53
2023-04-09T12:00:25.427Z,2.75
2023-04-09T12:03:03.627Z,2.45
2023-04-09T12:05:32.923Z,2.25
2023-04-09T12:08:05.201Z,2.30
2023-04-09T12:10:33.835Z,2.60
2023-04-09T12:13:10.999Z,2.72
2023-04-09T12:15:41.154Z,2.70
2023-04-09T12:18:09.929Z,2.53
2023-04-09T12:20:39.708Z,2.70
2023-04-09T12:23:07.692Z,2.30
2023-04-09T12:25:39.782Z,2.65
2023-04-09T12:28:07.924Z,2.60
2023-04-09T12:30:36.083Z,2.75
2023-04-09T12:33:03.954Z,2.62
2023-04-09T12:35:31.921Z,2.10
2023-04-09T12:37:59.761Z,2.72
2023-04-09T12:40:27.451Z,2.10
2023-04-09T12:42:54.959Z,2.40
2023-04-09T12:45:22.790Z,2.42
2023-04-09T12:47:50.372Z,2.33
2023-04-09T12:50:17.934Z,2.10
2023-04-09T12:52:45.928Z,2.60
2023-04-09T12:55:13.655Z,2.40
2023-04-09T12:57:44.070Z,2.60
2023-04-09T13:00:12.303Z,2.37
2023-04-09T13:02:39.924Z,2.25
2023-04-09T13:05:07.888Z,2.30
2023-04-09T13:07:35.807Z,2.30
2023-04-09T13:10:03.437Z,2.70
2023-04-09T13:12:30.874Z,2.37
2023-04-09T13:15:01.266Z,2.47
2023-04-09T13:19:56.109Z,2.40
2023-04-09T13:22:24.035Z,2.45
2023-04-09T13:24:51.527Z,2.40
2023-04-09T13:27:19.017Z,2.10
2023-04-09T13:29:46.773Z,2.28
2023-04-09T13:32:14.532Z,2.30
2023-04-09T13:34:42.006Z,2.17
2023-04-09T13:37:09.865Z,2.33
2023-04-09T13:39:37.293Z,2.37
2023-04-09T13:42:10.086Z,2.25
2023-04-09T13:44:42.526Z,2.33
2023-04-09T13:47:13.382Z,2.40
2023-04-09T13:49:41.341Z,2.33
2023-04-09T13:52:09.179Z,2.30
2023-04-09T13:54:36.782Z,2.00
2023-04-09T13:57:04.562Z,2.40
2023-04-09T13:59:32.167Z,2.50
2023-04-09T14:01:59.723Z,2.30
2023-04-09T14:04:27.724Z,2.25
2023-04-09T14:06:55.153Z,2.47
2023-04-09T14:09:24.052Z,2.05
2023-04-09T14:11:51.816Z,2.23
2023-04-09T14:14:19.945Z,2.30
2023-04-09T14:16:48.355Z,2.35
2023-04-09T14:19:16.136Z,2.50
2023-04-09T14:21:43.843Z,2.00
2023-04-09T14:24:11.280Z,2.03
2023-04-09T14:26:38.961Z,2.17
2023-04-09T14:29:06.381Z,2.10
2023-04-09T14:31:33.843Z,2.00
2023-04-09T14:34:01.623Z,2.28
2023-04-09T14:36:29.051Z,2.47
2023-04-09T14:38:57.854Z,2.17
2023-04-09T14:41:26.306Z,1.98
2023-04-09T14:43:53.722Z,2.50
2023-04-09T14:46:22.173Z,2.20
2023-04-09T14:48:50.091Z,2.30
2023-04-09T14:51:17.713Z,2.80
2023-04-09T14:53:45.247Z,3.70
2023-04-09T14:56:13.000Z,3.37
2023-04-09T14:58:40.726Z,3.55
2023-04-09T15:01:08.317Z,3.33
2023-04-09T15:03:36.275Z,3.80
2023-04-09T15:06:04.065Z,3.35
2023-04-09T15:08:31.543Z,3.30
2023-04-09T15:10:59.442Z,3.87
2023-04-09T15:13:26.886Z,4.03
2023-04-09T15:15:54.488Z,3.72
2023-04-09T15:18:22.249Z,3.67
2023-04-09T15:20:50.547Z,4.32
2023-04-09T15:23:18.018Z,4.05
2023-04-09T15:25:48.338Z,4.18
2023-04-09T15:30:43.226Z,4.85
2023-04-09T15:33:11.133Z,3.90
2023-04-09T15:35:38.641Z,5.10
2023-04-09T15:38:06.161Z,4.62
2023-04-09T15:40:34.122Z,4.18
2023-04-09T15:43:01.639Z,5.07
2023-04-09T15:45:29.147Z,4.35
2023-04-09T15:47:56.877Z,4.55
2023-04-09T15:50:24.669Z,4.35
2023-04-09T15:52:52.124Z,4.45
2023-04-09T15:55:19.987Z,4.25
2023-04-09T15:57:47.493Z,4.28
2023-04-09T16:00:15.615Z,4.25
2023-04-09T16:02:43.565Z,5.12
2023-04-09T16:05:11.241Z,5.15
2023-04-09T16:07:39.737Z,4.95
2023-04-09T16:10:07.918Z,4.07
2023-04-09T16:12:35.585Z,4.03
2023-04-09T16:15:03.068Z,4.12
2023-04-09T16:17:36.501Z,4.55
2023-04-09T16:20:08.551Z,4.25
2023-04-09T16:22:36.527Z,4.50
2023-04-09T16:25:04.082Z,4.00
2023-04-09T16:27:31.694Z,3.83
2023-04-09T16:29:59.444Z,4.20
2023-04-09T16:32:27.373Z,4.10
2023-04-09T16:34:56.084Z,3.80
2023-04-09T16:37:23.915Z,4.37
2023-04-09T16:39:51.373Z,4.12
2023-04-09T16:42:18.932Z,4.25
2023-04-09T16:44:46.839Z,4.20
2023-04-09T16:47:14.292Z,3.65
2023-04-09T16:49:41.722Z,4.18
2023-04-09T16:52:09.433Z,4.30
2023-04-09T16:54:36.894Z,3.75
2023-04-09T16:57:04.363Z,3.70
2023-04-09T16:59:32.453Z,4.32
2023-04-09T17:01:59.976Z,4.70
2023-04-09T17:04:27.673Z,4.35
2023-04-09T17:06:55.576Z,3.95
2023-04-09T17:09:23.007Z,3.87
2023-04-09T17:11:52.968Z,4.25
2023-04-09T17:14:20.768Z,4.32
2023-04-09T17:16:48.672Z,4.10
2023-04-09T17:19:16.151Z,4.22
2023-04-09T17:21:43.891Z,4.18
2023-04-09T17:24:11.328Z,3.72
2023-04-09T17:26:39.201Z,4.00
2023-04-09T17:29:07.002Z,4.00
2023-04-09T17:31:34.574Z,3.80
2023-04-09T17:34:02.020Z,3.72
2023-04-09T17:36:29.812Z,3.92
2023-04-09T17:38:57.378Z,3.85
2023-04-09T17:41:25.163Z,3.95
2023-04-09T17:43:52.818Z,4.15
2023-04-09T17:46:20.313Z,3.55
2023-04-09T17:48:48.057Z,4.05
2023-04-09T17:51:18.798Z,4.03
2023-04-09T17:53:47.337Z,3.83
2023-04-09T17:56:17.903Z,3.70
2023-04-09T17:58:46.530Z,3.90
2023-04-09T18:01:14.090Z,3.33
2023-04-09T18:03:48.516Z,3.87
2023-04-09T18:06:17.409Z,3.53
2023-04-09T18:08:45.212Z,3.72
2023-04-09T18:11:14.128Z,3.62
2023-04-09T18:13:41.749Z,3.70
2023-04-09T18:16:12.741Z,3.60
2023-04-09T18:18:40.418Z,3.80
2023-04-09T18:21:07.904Z,3.95
2023-04-09T18:23:35.627Z,3.58
2023-04-09T18:26:03.080Z,4.30
2023-04-09T18:28:30.711Z,3.62
2023-04-09T18:30:58.920Z,3.60
2023-04-09T18:33:27.112Z,3.30
2023-04-09T18:35:54.716Z,3.80
2023-04-09T18:38:24.434Z,3.40
2023-04-09T18:40:51.908Z,3.97
2023-04-09T18:43:19.584Z,3.78
2023-04-09T18:45:47.342Z,3.40
2023-04-09T18:48:14.831Z,3.65
2023-04-09T18:50:42.375Z,3.47
2023-04-09T18:53:10.510Z,3.53
2023-04-09T18:55:38.581Z,3.45
2023-04-09T18:58:12.521Z,3.62
2023-04-09T19:00:40.681Z,3.47
2023-04-09T19:03:08.841Z,3.78
2023-04-09T19:05:36.826Z,4.25
2023-04-09T19:08:05.589Z,3.78
2023-04-09T19:10:33.411Z,3.90
2023-04-09T19:13:00.850Z,3.30
2023-04-09T19:15:29.383Z,3.75
2023-04-09T19:17:57.131Z,3.72
2023-04-09T19:20:24.640Z,4.10
2023-04-09T19:22:57.325Z,3.60
2023-04-09T19:25:25.090Z,3.35
2023-04-09T19:27:54.363Z,3.80
2023-04-09T19:30:21.941Z,3.70
2023-04-09T19:32:49.441Z,3.80
2023-04-09T19:35:17.672Z,3.70
2023-04-09T19:37:45.646Z,3.53
2023-04-09T19:40:15.877Z,3.80
2023-04-09T19:42:44.009Z,3.85
2023-04-09T19:45:11.932Z,3.97
2023-04-09T19:47:39.443Z,3.62
2023-04-09T19:50:07.461Z,3.97
2023-04-09T19:52:34.926Z,3.60
2023-04-09T19:55:04.366Z,3.75
2023-04-09T19:57:32.210Z,3.42
2023-04-09T19:59:59.619Z,4.07
2023-04-09T20:02:27.261Z,4.18
2023-04-09T20:04:55.148Z,3.83
2023-04-09T20:07:22.808Z,3.92
2023-04-09T20:09:50.613Z,3.85
2023-04-09T20:12:19.317Z,3.90
2023-04-09T20:14:47.140Z,4.12
2023-04-09T20:17:14.632Z,3.87
2023-04-09T20:19:42.339Z,4.40
2023-04-09T20:22:09.931Z,3.92
2023-04-09T20:24:38.359Z,3.70
2023-04-09T20:27:06.565Z,3.95
2023-04-09T20:29:34.037Z,3.67
2023-04-09T20:32:02.192Z,3.70
2023-04-09T20:34:30.009Z,4.03
2023-04-09T20:36:57.644Z,4.30
2023-04-09T20:39:26.802Z,3.58
2023-04-09T20:41:56.560Z,3.78
2023-04-09T20:44:24.928Z,3.83
2023-04-09T20:46:52.358Z,3.78
2023-04-09T20:49:20.272Z,3.70
2023-04-09T20:51:47.759Z,4.75
2023-04-09T20:54:17.984Z,4.15
2023-04-09T20:56:45.733Z,3.40
2023-04-09T20:59:14.988Z,4.50
2023-04-09T21:01:42.615Z,3.60
2023-04-09T21:04:10.604Z,4.03
2023-04-09T21:06:38.149Z,3.50
2023-04-09T21:09:05.716Z,3.85
2023-04-09T21:11:33.418Z,4.00
2023-04-09T21:14:01.140Z,3.40
2023-04-09T21:16:29.904Z,3.60
2023-04-09T21:18:57.762Z,3.33
2023-04-09T21:21:27.524Z,3.67
2023-04-09T21:23:55.002Z,3.95
2023-04-09T21:26:22.765Z,3.45
2023-04-09T21:28:50.975Z,4.05
2023-04-09T21:31:18.483Z,3.70
2023-04-09T21:33:46.374Z,3.45
2023-04-09T21:36:13.886Z,4.07
2023-04-09T21:38:41.399Z,3.53
2023-04-09T21:41:09.149Z,3.60
2023-04-09T21:43:38.535Z,3.83
2023-04-09T21:46:06.318Z,3.90
2023-04-09T21:48:34.117Z,3.37
2023-04-09T21:51:01.597Z,3.03
2023-04-09T21:53:30.911Z,3.37
2023-04-09T21:55:58.715Z,3.30
2023-04-09T21:58:26.221Z,3.45
2023-04-09T22:00:53.716Z,3.60
2023-04-09T22:03:22.517Z,3.33
2023-04-09T22:05:50.233Z,3.42
2023-04-09T22:08:18.442Z,3.28
2023-04-09T22:10:46.404Z,3.40
2023-04-09T22:13:13.870Z,3.17
2023-04-09T22:15:42.148Z,3.40
2023-04-09T22:18:09.906Z,3.62
2023-04-09T22:20:37.482Z,3.47
2023-04-09T22:23:06.018Z,2.80
2023-04-09T22:25:35.119Z,3.47
2023-04-09T22:28:02.626Z,2.92
2023-04-09T22:30:30.158Z,3.30
2023-04-09T22:32:57.945Z,3.22
2023-04-09T22:35:25.437Z,2.90
2023-04-09T22:37:52.894Z,3.08
2023-04-09T22:40:20.642Z,3.15
2023-04-09T22:42:48.324Z,2.70
2023-04-09T22:45:16.077Z,3.12
2023-04-09T22:47:44.245Z,3.10
2023-04-09T22:50:13.468Z,6.45
2023-04-09T22:52:40.976Z,5.62
2023-04-09T22:55:10.204Z,5.72
2023-04-09T22:57:38.385Z,5.55
2023-04-09T23:00:06.537Z,4.95
2023-04-09T23:02:34.428Z,5.45
2023-04-09T23:05:02.246Z,4.78
2023-04-09T23:07:29.818Z,5.07
2023-04-09T23:09:57.538Z,4.50
2023-04-09T23:12:24.942Z,4.72
2023-04-09T23:14:53.431Z,4.80
2023-04-09T23:17:22.716Z,4.30
2023-04-09T23:19:52.375Z,3.78
2023-04-09T23:22:19.849Z,4.22
2023-04-09T23:24:47.636Z,4.75
2023-04-09T23:27:15.108Z,4.20
2023-04-09T23:29:42.536Z,4.07
2023-04-09T23:32:10.673Z,4.62
2023-04-09T23:34:38.126Z,4.65
2023-04-09T23:37:05.730Z,4.20
2023-04-09T23:39:33.479Z,4.45
2023-04-09T23:42:02.321Z,4.37
2023-04-09T23:44:29.795Z,4.72
2023-04-09T23:46:58.256Z,3.95
2023-04-09T23:49:29.156Z,4.03
2023-04-09T23:51:56.853Z,3.58
2023-04-09T23:54:24.311Z,4.32
2023-04-09T23:56:51.774Z,3.72
2023-04-09T23:59:19.515Z,4.10
